Flugplatz Lauterbach

Für EDFT sind keine METAR/TAF Berichte vorhanden.
Es werden die Flugwettermeldungen vom Flugplatz Fritzlar Airport in 48 km Entfernung angezeigt.

Bericht für ETHF

vom 22.01. um 13:20 UTC

Wind 1 kt aus 130°

Sichtweite 4000 m

feuchter Dunst

gering bewölkt in 300 ft

bedeckt in 1000 ft

Temperatur 0.0°C

Taupunkt -1.0°C

Luftfeuchtigkeit 93%

Luftdruck 1035 hPa

ETHF 221320Z 13001KT 4000 BR FEW003 OVC010 M00/M01 Q1035 GRN GRN TEMPO YLO

Prognose für ETHF

vom 22.01. um 00:00 UTC

Zwischen 00:00 UTC und 00:00 UTC

variable Windrichtung mit 2 kt

Sichtweite 8000 m

keine signifikanten Wettererscheinungen

gering bewölkt in 800 ft

aufgebrochene Bewölkung in 1200 ft


Zwischen 00:00 UTC und 00:00 UTC mit einer Wahrscheinlichkeit von 30%

variable Windrichtung mit 3 kt

Sichtweite 1500 m

Code: FZDZ

bedeckt in 400 ft


Zwischen 00:00 UTC und 00:00 UTC zeitweise

Wind 4 kt aus 300°

Sichtweite 3000 m

feuchter Dunst

aufgebrochene Bewölkung in 600 ft

TAF ETHF 221114Z 2212/2221 VRB02KT 8000 NSW FEW008 BKN012 TEMPO 2212/2221 30004KT 3000 BR BKN006 PROB30 2212/2215 VRB03KT 1500 -FZDZ OVC004
Impressum